RJSH(METAR)
04/28 17:00
METAR RJSH 280800Z 25008KT 230V290 9999 FEW020 SCT070 15/02 Q1004
RMK 1CU020 3AC070 A2967=
戻る
トップページへ戻る
IMOC Co,.Ltd.